sensor_id;sensor_type;location;lat;lon;timestamp;temperature;humidity
1221;DHT22;600;48.044;7.878;2022-10-16T00:01:46;18.20;99.90
1221;DHT22;600;48.044;7.878;2022-10-16T00:04:13;18.20;99.90
1221;DHT22;600;48.044;7.878;2022-10-16T00:06:40;18.20;99.90
1221;DHT22;600;48.044;7.878;2022-10-16T00:09:07;18.20;99.90
1221;DHT22;600;48.044;7.878;2022-10-16T00:11:35;18.20;99.90
1221;DHT22;600;48.044;7.878;2022-10-16T00:14:05;18.20;99.90
1221;DHT22;600;48.044;7.878;2022-10-16T00:16:33;18.30;99.90
1221;DHT22;600;48.044;7.878;2022-10-16T00:19:00;18.30;99.90
1221;DHT22;600;48.044;7.878;2022-10-16T00:21:29;18.30;99.90
1221;DHT22;600;48.044;7.878;2022-10-16T00:23:57;18.30;99.90
1221;DHT22;600;48.044;7.878;2022-10-16T00:26:26;18.20;99.90
1221;DHT22;600;48.044;7.878;2022-10-16T00:28:53;18.30;99.90
1221;DHT22;600;48.044;7.878;2022-10-16T00:31:21;18.30;99.90
1221;DHT22;600;48.044;7.878;2022-10-16T00:33:49;18.20;99.90
1221;DHT22;600;48.044;7.878;2022-10-16T00:36:18;18.20;99.90
1221;DHT22;600;48.044;7.878;2022-10-16T00:38:45;18.20;99.90
1221;DHT22;600;48.044;7.878;2022-10-16T00:41:14;18.20;99.90
1221;DHT22;600;48.044;7.878;2022-10-16T00:43:42;18.20;99.90
1221;DHT22;600;48.044;7.878;2022-10-16T00:46:15;18.20;99.90
1221;DHT22;600;48.044;7.878;2022-10-16T00:48:48;18.20;99.90
1221;DHT22;600;48.044;7.878;2022-10-16T00:51:20;18.20;99.90
1221;DHT22;600;48.044;7.878;2022-10-16T00:53:49;18.20;99.90
1221;DHT22;600;48.044;7.878;2022-10-16T00:56:16;18.20;99.90
1221;DHT22;600;48.044;7.878;2022-10-16T00:58:43;18.20;99.90
1221;DHT22;600;48.044;7.878;2022-10-16T01:01:10;18.20;99.90
1221;DHT22;600;48.044;7.878;2022-10-16T01:03:37;18.20;99.90
1221;DHT22;600;48.044;7.878;2022-10-16T01:06:11;18.20;99.90
1221;DHT22;600;48.044;7.878;2022-10-16T01:08:49;18.20;99.90
1221;DHT22;600;48.044;7.878;2022-10-16T01:11:24;18.20;99.90
1221;DHT22;600;48.044;7.878;2022-10-16T01:13:57;18.20;99.90
1221;DHT22;600;48.044;7.878;2022-10-16T01:16:30;18.20;99.90
1221;DHT22;600;48.044;7.878;2022-10-16T01:19:05;18.20;99.90
1221;DHT22;600;48.044;7.878;2022-10-16T01:21:39;18.20;99.90
1221;DHT22;600;48.044;7.878;2022-10-16T01:24:14;18.20;99.90
1221;DHT22;600;48.044;7.878;2022-10-16T01:27:00;18.10;99.90
1221;DHT22;600;48.044;7.878;2022-10-16T01:29:31;18.10;99.90
1221;DHT22;600;48.044;7.878;2022-10-16T01:32:02;18.10;99.90
1221;DHT22;600;48.044;7.878;2022-10-16T01:34:33;18.10;99.90
1221;DHT22;600;48.044;7.878;2022-10-16T01:37:04;18.10;99.90
1221;DHT22;600;48.044;7.878;2022-10-16T01:39:35;18.10;99.90
1221;DHT22;600;48.044;7.878;2022-10-16T01:42:07;18.10;99.90
1221;DHT22;600;48.044;7.878;2022-10-16T01:44:36;18.10;99.90
1221;DHT22;600;48.044;7.878;2022-10-16T01:47:04;18.10;99.90
1221;DHT22;600;48.044;7.878;2022-10-16T01:49:34;18.10;99.90
1221;DHT22;600;48.044;7.878;2022-10-16T01:52:05;18.00;99.90
1221;DHT22;600;48.044;7.878;2022-10-16T01:54:35;18.00;99.90
1221;DHT22;600;48.044;7.878;2022-10-16T01:57:05;18.00;99.90
1221;DHT22;600;48.044;7.878;2022-10-16T01:59:38;18.00;99.90
1221;DHT22;600;48.044;7.878;2022-10-16T02:02:07;18.00;99.90
1221;DHT22;600;48.044;7.878;2022-10-16T02:04:38;18.00;99.90
1221;DHT22;600;48.044;7.878;2022-10-16T02:07:06;18.00;99.90
1221;DHT22;600;48.044;7.878;2022-10-16T02:09:34;18.00;99.90
1221;DHT22;600;48.044;7.878;2022-10-16T02:12:08;18.00;99.90
1221;DHT22;600;48.044;7.878;2022-10-16T02:14:38;18.00;99.90
1221;DHT22;600;48.044;7.878;2022-10-16T02:17:10;18.00;99.90
1221;DHT22;600;48.044;7.878;2022-10-16T02:19:38;18.00;99.90
1221;DHT22;600;48.044;7.878;2022-10-16T02:22:06;18.00;99.90
1221;DHT22;600;48.044;7.878;2022-10-16T02:24:39;17.90;99.90
1221;DHT22;600;48.044;7.878;2022-10-16T02:27:13;17.90;99.90
1221;DHT22;600;48.044;7.878;2022-10-16T02:29:47;17.90;99.90
1221;DHT22;600;48.044;7.878;2022-10-16T02:32:17;17.90;99.90
1221;DHT22;600;48.044;7.878;2022-10-16T02:34:46;17.90;99.90
1221;DHT22;600;48.044;7.878;2022-10-16T02:37:15;17.90;99.90
1221;DHT22;600;48.044;7.878;2022-10-16T02:39:43;17.90;99.90
1221;DHT22;600;48.044;7.878;2022-10-16T02:42:12;17.90;99.90
1221;DHT22;600;48.044;7.878;2022-10-16T02:44:39;17.90;99.90
1221;DHT22;600;48.044;7.878;2022-10-16T02:47:05;17.90;99.90
1221;DHT22;600;48.044;7.878;2022-10-16T02:49:32;17.80;99.90
1221;DHT22;600;48.044;7.878;2022-10-16T02:51:59;17.90;99.90
1221;DHT22;600;48.044;7.878;2022-10-16T02:54:26;17.90;99.90
1221;DHT22;600;48.044;7.878;2022-10-16T02:56:52;17.90;99.90
1221;DHT22;600;48.044;7.878;2022-10-16T02:59:20;17.90;99.90
1221;DHT22;600;48.044;7.878;2022-10-16T03:01:47;17.90;99.90
1221;DHT22;600;48.044;7.878;2022-10-16T03:04:14;17.90;99.90
1221;DHT22;600;48.044;7.878;2022-10-16T03:06:41;17.90;99.90
1221;DHT22;600;48.044;7.878;2022-10-16T03:09:08;17.90;99.90
1221;DHT22;600;48.044;7.878;2022-10-16T03:11:34;17.90;99.90
1221;DHT22;600;48.044;7.878;2022-10-16T03:14:01;17.90;99.90
1221;DHT22;600;48.044;7.878;2022-10-16T03:16:29;17.90;99.90
1221;DHT22;600;48.044;7.878;2022-10-16T03:18:56;17.90;99.90
1221;DHT22;600;48.044;7.878;2022-10-16T03:21:23;17.90;99.90
1221;DHT22;600;48.044;7.878;2022-10-16T03:23:50;17.80;99.90
1221;DHT22;600;48.044;7.878;2022-10-16T03:26:17;17.80;99.90
1221;DHT22;600;48.044;7.878;2022-10-16T03:28:43;17.90;99.90
1221;DHT22;600;48.044;7.878;2022-10-16T03:31:10;17.90;99.90
1221;DHT22;600;48.044;7.878;2022-10-16T03:33:38;17.80;99.90
1221;DHT22;600;48.044;7.878;2022-10-16T03:36:05;17.90;99.90
1221;DHT22;600;48.044;7.878;2022-10-16T03:38:33;17.90;99.90
1221;DHT22;600;48.044;7.878;2022-10-16T03:40:59;17.90;99.90
1221;DHT22;600;48.044;7.878;2022-10-16T03:43:26;17.90;99.90
1221;DHT22;600;48.044;7.878;2022-10-16T03:45:53;17.90;99.90
1221;DHT22;600;48.044;7.878;2022-10-16T03:48:20;17.90;99.90
1221;DHT22;600;48.044;7.878;2022-10-16T03:50:48;17.90;99.90
1221;DHT22;600;48.044;7.878;2022-10-16T03:53:16;17.90;99.90
1221;DHT22;600;48.044;7.878;2022-10-16T03:55:43;17.90;99.90
1221;DHT22;600;48.044;7.878;2022-10-16T03:58:10;17.90;99.90
1221;DHT22;600;48.044;7.878;2022-10-16T04:00:40;17.90;99.90
1221;DHT22;600;48.044;7.878;2022-10-16T04:03:07;17.90;99.90
1221;DHT22;600;48.044;7.878;2022-10-16T04:05:33;17.90;99.90
1221;DHT22;600;48.044;7.878;2022-10-16T04:08:02;17.90;99.90
1221;DHT22;600;48.044;7.878;2022-10-16T04:10:28;17.90;99.90
1221;DHT22;600;48.044;7.878;2022-10-16T04:12:55;17.90;99.90
1221;DHT22;600;48.044;7.878;2022-10-16T04:15:22;17.90;99.90
1221;DHT22;600;48.044;7.878;2022-10-16T04:17:49;17.90;99.90
1221;DHT22;600;48.044;7.878;2022-10-16T04:20:16;17.90;99.90
1221;DHT22;600;48.044;7.878;2022-10-16T04:22:43;17.90;99.90
1221;DHT22;600;48.044;7.878;2022-10-16T04:25:11;17.90;99.90
1221;DHT22;600;48.044;7.878;2022-10-16T04:27:38;17.90;99.90
1221;DHT22;600;48.044;7.878;2022-10-16T04:30:06;17.90;99.90
1221;DHT22;600;48.044;7.878;2022-10-16T04:32:33;17.90;99.90
1221;DHT22;600;48.044;7.878;2022-10-16T04:35:00;17.90;99.90
1221;DHT22;600;48.044;7.878;2022-10-16T04:37:27;17.90;99.90
1221;DHT22;600;48.044;7.878;2022-10-16T04:39:54;17.90;99.90
1221;DHT22;600;48.044;7.878;2022-10-16T04:42:22;17.90;99.90
1221;DHT22;600;48.044;7.878;2022-10-16T04:44:48;17.90;99.90
1221;DHT22;600;48.044;7.878;2022-10-16T04:47:15;17.90;99.90
1221;DHT22;600;48.044;7.878;2022-10-16T04:49:42;17.90;99.90
1221;DHT22;600;48.044;7.878;2022-10-16T04:52:09;17.90;99.90
1221;DHT22;600;48.044;7.878;2022-10-16T04:54:35;17.90;99.90
1221;DHT22;600;48.044;7.878;2022-10-16T04:57:02;17.90;99.90
1221;DHT22;600;48.044;7.878;2022-10-16T04:59:31;17.90;99.90
1221;DHT22;600;48.044;7.878;2022-10-16T05:01:58;17.90;99.90
1221;DHT22;600;48.044;7.878;2022-10-16T05:04:25;18.00;99.90
1221;DHT22;600;48.044;7.878;2022-10-16T05:06:52;18.00;99.90
1221;DHT22;600;48.044;7.878;2022-10-16T05:09:18;18.00;99.90
1221;DHT22;600;48.044;7.878;2022-10-16T05:11:46;18.00;99.90
1221;DHT22;600;48.044;7.878;2022-10-16T05:14:12;18.00;99.90
1221;DHT22;600;48.044;7.878;2022-10-16T05:16:40;18.00;99.90
1221;DHT22;600;48.044;7.878;2022-10-16T05:19:07;18.00;99.90
1221;DHT22;600;48.044;7.878;2022-10-16T05:21:34;18.00;99.90
1221;DHT22;600;48.044;7.878;2022-10-16T05:24:01;18.00;99.90
1221;DHT22;600;48.044;7.878;2022-10-16T05:26:27;18.00;99.90
1221;DHT22;600;48.044;7.878;2022-10-16T05:28:54;18.00;99.90
1221;DHT22;600;48.044;7.878;2022-10-16T05:31:21;18.00;99.90
1221;DHT22;600;48.044;7.878;2022-10-16T05:33:49;18.00;99.90
1221;DHT22;600;48.044;7.878;2022-10-16T05:36:15;18.00;99.90
1221;DHT22;600;48.044;7.878;2022-10-16T05:38:43;18.00;99.90
1221;DHT22;600;48.044;7.878;2022-10-16T05:41:10;18.00;99.90
1221;DHT22;600;48.044;7.878;2022-10-16T05:43:37;18.00;99.90
1221;DHT22;600;48.044;7.878;2022-10-16T05:46:05;18.00;99.90
1221;DHT22;600;48.044;7.878;2022-10-16T05:48:32;18.00;99.90
1221;DHT22;600;48.044;7.878;2022-10-16T05:51:02;18.00;99.90
1221;DHT22;600;48.044;7.878;2022-10-16T05:53:30;18.00;99.90
1221;DHT22;600;48.044;7.878;2022-10-16T05:55:58;18.00;99.90
1221;DHT22;600;48.044;7.878;2022-10-16T05:58:28;18.00;99.90
1221;DHT22;600;48.044;7.878;2022-10-16T06:00:56;18.00;99.90
1221;DHT22;600;48.044;7.878;2022-10-16T06:03:23;18.00;99.90
1221;DHT22;600;48.044;7.878;2022-10-16T06:05:50;18.00;99.90
1221;DHT22;600;48.044;7.878;2022-10-16T06:08:19;18.00;99.90
1221;DHT22;600;48.044;7.878;2022-10-16T06:10:46;18.10;99.90
1221;DHT22;600;48.044;7.878;2022-10-16T06:13:14;18.10;99.90
1221;DHT22;600;48.044;7.878;2022-10-16T06:15:42;18.10;99.90
1221;DHT22;600;48.044;7.878;2022-10-16T06:18:09;18.10;99.90
1221;DHT22;600;48.044;7.878;2022-10-16T06:20:36;18.10;99.90
1221;DHT22;600;48.044;7.878;2022-10-16T06:23:03;18.10;99.90
1221;DHT22;600;48.044;7.878;2022-10-16T06:25:31;18.10;99.90
1221;DHT22;600;48.044;7.878;2022-10-16T06:27:58;18.10;99.90
1221;DHT22;600;48.044;7.878;2022-10-16T06:30:25;18.10;99.90
1221;DHT22;600;48.044;7.878;2022-10-16T06:32:52;18.10;99.90
1221;DHT22;600;48.044;7.878;2022-10-16T06:35:19;18.10;99.90
1221;DHT22;600;48.044;7.878;2022-10-16T06:37:45;18.10;99.90
1221;DHT22;600;48.044;7.878;2022-10-16T06:40:12;18.10;99.90
1221;DHT22;600;48.044;7.878;2022-10-16T06:42:41;18.10;99.90
1221;DHT22;600;48.044;7.878;2022-10-16T06:45:09;18.20;99.90
1221;DHT22;600;48.044;7.878;2022-10-16T06:47:36;18.10;99.90
1221;DHT22;600;48.044;7.878;2022-10-16T06:50:03;18.10;99.90
1221;DHT22;600;48.044;7.878;2022-10-16T06:52:32;18.10;99.90
1221;DHT22;600;48.044;7.878;2022-10-16T06:54:58;18.20;99.90
1221;DHT22;600;48.044;7.878;2022-10-16T06:57:25;18.20;99.90
1221;DHT22;600;48.044;7.878;2022-10-16T06:59:54;18.10;99.90
1221;DHT22;600;48.044;7.878;2022-10-16T07:02:20;18.20;99.90
1221;DHT22;600;48.044;7.878;2022-10-16T07:04:47;18.10;99.90
1221;DHT22;600;48.044;7.878;2022-10-16T07:07:14;18.20;99.90
1221;DHT22;600;48.044;7.878;2022-10-16T07:09:40;18.10;99.90
1221;DHT22;600;48.044;7.878;2022-10-16T07:12:07;18.10;99.90
1221;DHT22;600;48.044;7.878;2022-10-16T07:14:34;18.20;99.90
1221;DHT22;600;48.044;7.878;2022-10-16T07:17:02;18.20;99.90
1221;DHT22;600;48.044;7.878;2022-10-16T07:19:29;18.20;99.90
1221;DHT22;600;48.044;7.878;2022-10-16T07:21:56;18.20;99.90
1221;DHT22;600;48.044;7.878;2022-10-16T07:24:23;18.20;99.90
1221;DHT22;600;48.044;7.878;2022-10-16T07:26:50;18.20;99.90
1221;DHT22;600;48.044;7.878;2022-10-16T07:29:18;18.20;99.90
1221;DHT22;600;48.044;7.878;2022-10-16T07:31:46;18.20;99.90
1221;DHT22;600;48.044;7.878;2022-10-16T07:34:17;18.20;99.90
1221;DHT22;600;48.044;7.878;2022-10-16T07:36:44;18.20;99.90
1221;DHT22;600;48.044;7.878;2022-10-16T07:39:11;18.30;99.90
1221;DHT22;600;48.044;7.878;2022-10-16T07:41:38;18.30;99.90
1221;DHT22;600;48.044;7.878;2022-10-16T07:44:04;18.30;99.90
1221;DHT22;600;48.044;7.878;2022-10-16T07:46:32;18.30;99.90
1221;DHT22;600;48.044;7.878;2022-10-16T07:48:59;18.30;99.90
1221;DHT22;600;48.044;7.878;2022-10-16T07:51:27;18.40;99.90
1221;DHT22;600;48.044;7.878;2022-10-16T07:53:54;18.40;99.90
1221;DHT22;600;48.044;7.878;2022-10-16T07:56:21;18.40;99.90
1221;DHT22;600;48.044;7.878;2022-10-16T07:58:49;18.40;99.90
1221;DHT22;600;48.044;7.878;2022-10-16T08:01:16;18.40;99.90
1221;DHT22;600;48.044;7.878;2022-10-16T08:03:45;18.50;99.90
1221;DHT22;600;48.044;7.878;2022-10-16T08:06:12;18.50;99.90
1221;DHT22;600;48.044;7.878;2022-10-16T08:08:40;18.60;99.90
1221;DHT22;600;48.044;7.878;2022-10-16T08:11:07;18.60;99.90
1221;DHT22;600;48.044;7.878;2022-10-16T08:13:34;18.70;99.90
1221;DHT22;600;48.044;7.878;2022-10-16T08:16:01;18.70;99.90
1221;DHT22;600;48.044;7.878;2022-10-16T08:18:29;18.70;99.90
1221;DHT22;600;48.044;7.878;2022-10-16T08:20:56;18.80;99.90
1221;DHT22;600;48.044;7.878;2022-10-16T08:23:23;18.80;99.90
1221;DHT22;600;48.044;7.878;2022-10-16T08:25:52;18.90;99.90
1221;DHT22;600;48.044;7.878;2022-10-16T08:28:19;18.90;99.90
1221;DHT22;600;48.044;7.878;2022-10-16T08:30:46;19.00;99.90
1221;DHT22;600;48.044;7.878;2022-10-16T08:33:13;19.00;99.90
1221;DHT22;600;48.044;7.878;2022-10-16T08:35:40;19.10;99.90
1221;DHT22;600;48.044;7.878;2022-10-16T08:38:07;19.10;99.90
1221;DHT22;600;48.044;7.878;2022-10-16T08:40:36;19.10;99.90
1221;DHT22;600;48.044;7.878;2022-10-16T08:43:20;19.20;99.90
1221;DHT22;600;48.044;7.878;2022-10-16T08:46:04;19.20;99.90
1221;DHT22;600;48.044;7.878;2022-10-16T08:48:39;19.20;99.90
1221;DHT22;600;48.044;7.878;2022-10-16T08:51:10;19.30;99.90
1221;DHT22;600;48.044;7.878;2022-10-16T08:53:44;19.20;99.90
1221;DHT22;600;48.044;7.878;2022-10-16T08:56:13;19.20;99.90
1221;DHT22;600;48.044;7.878;2022-10-16T08:58:41;19.20;99.90
1221;DHT22;600;48.044;7.878;2022-10-16T09:01:12;19.20;99.90
1221;DHT22;600;48.044;7.878;2022-10-16T09:03:54;19.20;99.90
1221;DHT22;600;48.044;7.878;2022-10-16T09:06:35;19.20;99.90
1221;DHT22;600;48.044;7.878;2022-10-16T09:09:19;19.20;99.90
1221;DHT22;600;48.044;7.878;2022-10-16T09:11:54;19.30;99.90
1221;DHT22;600;48.044;7.878;2022-10-16T09:14:35;19.30;99.90
1221;DHT22;600;48.044;7.878;2022-10-16T09:17:18;19.40;99.90
1221;DHT22;600;48.044;7.878;2022-10-16T09:19:53;19.40;99.90
1221;DHT22;600;48.044;7.878;2022-10-16T09:22:26;19.50;99.90
1221;DHT22;600;48.044;7.878;2022-10-16T09:24:55;19.50;99.90
1221;DHT22;600;48.044;7.878;2022-10-16T09:27:24;19.50;99.90
1221;DHT22;600;48.044;7.878;2022-10-16T09:29:54;19.60;99.90
1221;DHT22;600;48.044;7.878;2022-10-16T09:32:21;19.60;99.90
1221;DHT22;600;48.044;7.878;2022-10-16T09:34:51;19.60;99.90
1221;DHT22;600;48.044;7.878;2022-10-16T09:37:20;19.70;99.90
1221;DHT22;600;48.044;7.878;2022-10-16T09:39:49;19.70;99.90
1221;DHT22;600;48.044;7.878;2022-10-16T09:42:17;19.80;99.90
1221;DHT22;600;48.044;7.878;2022-10-16T09:44:48;19.80;99.90
1221;DHT22;600;48.044;7.878;2022-10-16T09:47:20;19.90;99.90
1221;DHT22;600;48.044;7.878;2022-10-16T09:49:52;20.00;99.90
1221;DHT22;600;48.044;7.878;2022-10-16T09:52:19;20.10;99.90
1221;DHT22;600;48.044;7.878;2022-10-16T09:54:51;20.10;99.90
1221;DHT22;600;48.044;7.878;2022-10-16T09:57:18;20.10;99.90
1221;DHT22;600;48.044;7.878;2022-10-16T09:59:49;20.20;99.90
1221;DHT22;600;48.044;7.878;2022-10-16T10:02:19;20.20;99.90
1221;DHT22;600;48.044;7.878;2022-10-16T10:04:49;20.30;99.90
1221;DHT22;600;48.044;7.878;2022-10-16T10:07:19;20.30;99.90
1221;DHT22;600;48.044;7.878;2022-10-16T10:09:46;20.30;99.90
1221;DHT22;600;48.044;7.878;2022-10-16T10:12:21;20.40;99.90
1221;DHT22;600;48.044;7.878;2022-10-16T10:14:49;20.40;99.90
1221;DHT22;600;48.044;7.878;2022-10-16T10:17:21;20.40;99.90
1221;DHT22;600;48.044;7.878;2022-10-16T10:19:50;20.50;99.90
1221;DHT22;600;48.044;7.878;2022-10-16T10:22:24;20.50;99.90
1221;DHT22;600;48.044;7.878;2022-10-16T10:31:05;20.60;99.90
1221;DHT22;600;48.044;7.878;2022-10-16T10:33:41;20.60;99.90
1221;DHT22;600;48.044;7.878;2022-10-16T10:36:17;20.60;99.90
1221;DHT22;600;48.044;7.878;2022-10-16T10:38:49;20.70;99.90
1221;DHT22;600;48.044;7.878;2022-10-16T10:41:34;20.70;99.90
1221;DHT22;600;48.044;7.878;2022-10-16T10:44:11;20.70;99.90
1221;DHT22;600;48.044;7.878;2022-10-16T10:46:47;20.70;99.90
1221;DHT22;600;48.044;7.878;2022-10-16T10:49:27;20.70;99.90
1221;DHT22;600;48.044;7.878;2022-10-16T10:52:10;20.80;99.90
1221;DHT22;600;48.044;7.878;2022-10-16T10:54:46;20.80;99.90
1221;DHT22;600;48.044;7.878;2022-10-16T10:57:22;20.80;99.90
1221;DHT22;600;48.044;7.878;2022-10-16T11:00:02;20.80;99.90
1221;DHT22;600;48.044;7.878;2022-10-16T11:02:36;20.90;99.90
1221;DHT22;600;48.044;7.878;2022-10-16T11:05:31;20.90;99.90
1221;DHT22;600;48.044;7.878;2022-10-16T11:08:08;20.90;99.90
1221;DHT22;600;48.044;7.878;2022-10-16T11:10:42;21.00;99.90
1221;DHT22;600;48.044;7.878;2022-10-16T11:13:18;21.00;99.90
1221;DHT22;600;48.044;7.878;2022-10-16T11:15:48;21.00;99.90
1221;DHT22;600;48.044;7.878;2022-10-16T11:18:19;21.10;99.90
1221;DHT22;600;48.044;7.878;2022-10-16T11:20:53;21.10;99.90
1221;DHT22;600;48.044;7.878;2022-10-16T11:23:25;21.10;99.90
1221;DHT22;600;48.044;7.878;2022-10-16T11:25:55;21.10;99.90
1221;DHT22;600;48.044;7.878;2022-10-16T11:28:27;21.10;99.90
1221;DHT22;600;48.044;7.878;2022-10-16T11:30:57;21.20;99.90
1221;DHT22;600;48.044;7.878;2022-10-16T11:33:30;21.20;99.90
1221;DHT22;600;48.044;7.878;2022-10-16T11:36:06;21.30;99.90
1221;DHT22;600;48.044;7.878;2022-10-16T11:38:39;21.40;99.90
1221;DHT22;600;48.044;7.878;2022-10-16T11:41:13;21.40;99.90
1221;DHT22;600;48.044;7.878;2022-10-16T11:43:43;21.40;99.90
1221;DHT22;600;48.044;7.878;2022-10-16T11:46:15;21.40;99.90
1221;DHT22;600;48.044;7.878;2022-10-16T11:48:48;21.50;99.90
1221;DHT22;600;48.044;7.878;2022-10-16T11:51:23;21.50;99.90
1221;DHT22;600;48.044;7.878;2022-10-16T11:53:57;21.50;99.90
1221;DHT22;600;48.044;7.878;2022-10-16T11:56:26;21.60;99.90
1221;DHT22;600;48.044;7.878;2022-10-16T11:58:57;21.60;99.90
1221;DHT22;600;48.044;7.878;2022-10-16T12:01:30;21.60;99.90
1221;DHT22;600;48.044;7.878;2022-10-16T12:04:06;21.80;99.90
1221;DHT22;600;48.044;7.878;2022-10-16T12:06:41;21.90;99.90
1221;DHT22;600;48.044;7.878;2022-10-16T12:09:13;21.90;99.90
1221;DHT22;600;48.044;7.878;2022-10-16T12:11:41;22.00;99.90
1221;DHT22;600;48.044;7.878;2022-10-16T12:14:36;22.10;99.90
1221;DHT22;600;48.044;7.878;2022-10-16T12:19:57;22.20;99.90
1221;DHT22;600;48.044;7.878;2022-10-16T12:22:28;22.30;99.90
1221;DHT22;600;48.044;7.878;2022-10-16T12:24:55;22.40;99.90
1221;DHT22;600;48.044;7.878;2022-10-16T12:27:27;22.40;99.90
1221;DHT22;600;48.044;7.878;2022-10-16T12:29:55;22.40;99.90
1221;DHT22;600;48.044;7.878;2022-10-16T12:32:28;22.40;99.90
1221;DHT22;600;48.044;7.878;2022-10-16T12:34:56;22.40;99.90
1221;DHT22;600;48.044;7.878;2022-10-16T12:37:26;22.50;99.90
1221;DHT22;600;48.044;7.878;2022-10-16T12:39:55;22.50;99.90
1221;DHT22;600;48.044;7.878;2022-10-16T12:42:32;22.60;99.90
1221;DHT22;600;48.044;7.878;2022-10-16T12:45:00;22.60;99.90
1221;DHT22;600;48.044;7.878;2022-10-16T12:47:37;22.60;99.90
1221;DHT22;600;48.044;7.878;2022-10-16T12:52:46;22.70;99.90
1221;DHT22;600;48.044;7.878;2022-10-16T12:55:16;22.80;99.90
1221;DHT22;600;48.044;7.878;2022-10-16T12:57:59;22.80;99.90
1221;DHT22;600;48.044;7.878;2022-10-16T13:00:33;22.90;99.90
1221;DHT22;600;48.044;7.878;2022-10-16T13:03:39;22.90;99.90
1221;DHT22;600;48.044;7.878;2022-10-16T13:06:18;23.00;99.90
1221;DHT22;600;48.044;7.878;2022-10-16T13:09:05;23.00;99.90
1221;DHT22;600;48.044;7.878;2022-10-16T13:11:46;23.00;99.90
1221;DHT22;600;48.044;7.878;2022-10-16T13:14:28;23.10;99.90
1221;DHT22;600;48.044;7.878;2022-10-16T13:17:06;23.10;99.90
1221;DHT22;600;48.044;7.878;2022-10-16T13:19:41;23.10;99.90
1221;DHT22;600;48.044;7.878;2022-10-16T13:22:14;23.20;99.90
1221;DHT22;600;48.044;7.878;2022-10-16T13:24:56;23.10;99.90
1221;DHT22;600;48.044;7.878;2022-10-16T13:27:35;23.10;99.90
1221;DHT22;600;48.044;7.878;2022-10-16T13:30:12;23.10;99.90
1221;DHT22;600;48.044;7.878;2022-10-16T13:32:40;23.20;99.90
1221;DHT22;600;48.044;7.878;2022-10-16T13:35:21;23.20;99.90
1221;DHT22;600;48.044;7.878;2022-10-16T13:37:48;23.20;99.90
1221;DHT22;600;48.044;7.878;2022-10-16T13:40:20;23.20;99.90
1221;DHT22;600;48.044;7.878;2022-10-16T13:42:48;23.20;99.90
1221;DHT22;600;48.044;7.878;2022-10-16T13:45:20;23.30;99.90
1221;DHT22;600;48.044;7.878;2022-10-16T13:47:47;23.30;99.90
1221;DHT22;600;48.044;7.878;2022-10-16T13:50:15;23.30;99.90
1221;DHT22;600;48.044;7.878;2022-10-16T13:52:42;23.30;99.90
1221;DHT22;600;48.044;7.878;2022-10-16T13:55:11;23.40;99.90
1221;DHT22;600;48.044;7.878;2022-10-16T13:57:40;23.40;99.90
1221;DHT22;600;48.044;7.878;2022-10-16T14:00:21;23.40;99.90
1221;DHT22;600;48.044;7.878;2022-10-16T14:02:53;23.50;99.90
1221;DHT22;600;48.044;7.878;2022-10-16T14:05:22;23.50;99.90
1221;DHT22;600;48.044;7.878;2022-10-16T14:07:49;23.40;99.90
1221;DHT22;600;48.044;7.878;2022-10-16T14:10:23;23.50;99.90
1221;DHT22;600;48.044;7.878;2022-10-16T14:12:57;23.50;99.90
1221;DHT22;600;48.044;7.878;2022-10-16T14:15:25;23.50;99.90
1221;DHT22;600;48.044;7.878;2022-10-16T14:17:53;23.50;99.90
1221;DHT22;600;48.044;7.878;2022-10-16T14:20:22;23.60;99.90
1221;DHT22;600;48.044;7.878;2022-10-16T14:22:59;23.60;99.90
1221;DHT22;600;48.044;7.878;2022-10-16T14:25:28;23.60;99.90
1221;DHT22;600;48.044;7.878;2022-10-16T14:28:02;23.60;99.90
1221;DHT22;600;48.044;7.878;2022-10-16T14:30:30;23.60;99.90
1221;DHT22;600;48.044;7.878;2022-10-16T14:32:59;23.60;99.90
1221;DHT22;600;48.044;7.878;2022-10-16T14:35:28;23.60;99.90
1221;DHT22;600;48.044;7.878;2022-10-16T14:37:56;23.60;99.90
1221;DHT22;600;48.044;7.878;2022-10-16T14:40:25;23.60;99.90
1221;DHT22;600;48.044;7.878;2022-10-16T14:42:53;23.60;99.90
1221;DHT22;600;48.044;7.878;2022-10-16T14:45:24;23.60;99.90
1221;DHT22;600;48.044;7.878;2022-10-16T14:47:54;23.60;99.90
1221;DHT22;600;48.044;7.878;2022-10-16T14:50:21;23.60;99.90
1221;DHT22;600;48.044;7.878;2022-10-16T14:52:48;23.50;99.90
1221;DHT22;600;48.044;7.878;2022-10-16T14:55:15;23.50;99.90
1221;DHT22;600;48.044;7.878;2022-10-16T14:57:43;23.40;99.90
1221;DHT22;600;48.044;7.878;2022-10-16T15:00:16;23.40;99.90
1221;DHT22;600;48.044;7.878;2022-10-16T15:02:46;23.30;99.90
1221;DHT22;600;48.044;7.878;2022-10-16T15:05:16;23.30;99.90
1221;DHT22;600;48.044;7.878;2022-10-16T15:07:44;23.20;99.90
1221;DHT22;600;48.044;7.878;2022-10-16T15:10:11;23.20;99.90
1221;DHT22;600;48.044;7.878;2022-10-16T15:12:38;23.10;99.90
1221;DHT22;600;48.044;7.878;2022-10-16T15:15:21;23.00;99.90
1221;DHT22;600;48.044;7.878;2022-10-16T15:17:49;23.00;99.90
1221;DHT22;600;48.044;7.878;2022-10-16T15:20:17;23.00;99.90
1221;DHT22;600;48.044;7.878;2022-10-16T15:22:44;22.90;99.90
1221;DHT22;600;48.044;7.878;2022-10-16T15:25:25;22.90;99.90
1221;DHT22;600;48.044;7.878;2022-10-16T15:27:53;22.80;99.90
1221;DHT22;600;48.044;7.878;2022-10-16T15:30:20;22.80;99.90
1221;DHT22;600;48.044;7.878;2022-10-16T15:32:48;22.80;99.90
1221;DHT22;600;48.044;7.878;2022-10-16T15:35:15;22.70;99.90
1221;DHT22;600;48.044;7.878;2022-10-16T15:37:42;22.70;99.90
1221;DHT22;600;48.044;7.878;2022-10-16T15:40:10;22.60;99.90
1221;DHT22;600;48.044;7.878;2022-10-16T15:42:37;22.60;99.90
1221;DHT22;600;48.044;7.878;2022-10-16T15:45:04;22.50;99.90
1221;DHT22;600;48.044;7.878;2022-10-16T15:47:31;22.50;99.90
1221;DHT22;600;48.044;7.878;2022-10-16T15:49:59;22.50;99.90
1221;DHT22;600;48.044;7.878;2022-10-16T15:52:26;22.40;99.90
1221;DHT22;600;48.044;7.878;2022-10-16T15:54:54;22.40;99.90
1221;DHT22;600;48.044;7.878;2022-10-16T15:57:21;22.30;99.90
1221;DHT22;600;48.044;7.878;2022-10-16T15:59:48;22.30;99.90
1221;DHT22;600;48.044;7.878;2022-10-16T16:02:14;22.20;99.90
1221;DHT22;600;48.044;7.878;2022-10-16T16:04:41;22.20;99.90
1221;DHT22;600;48.044;7.878;2022-10-16T16:07:09;22.10;99.90
1221;DHT22;600;48.044;7.878;2022-10-16T16:09:36;22.10;99.90
1221;DHT22;600;48.044;7.878;2022-10-16T16:12:03;22.00;99.90
1221;DHT22;600;48.044;7.878;2022-10-16T16:14:30;22.00;99.90
1221;DHT22;600;48.044;7.878;2022-10-16T16:16:57;21.90;99.90
1221;DHT22;600;48.044;7.878;2022-10-16T16:19:24;21.90;99.90
1221;DHT22;600;48.044;7.878;2022-10-16T16:21:51;21.90;99.90
1221;DHT22;600;48.044;7.878;2022-10-16T16:24:19;21.80;99.90
1221;DHT22;600;48.044;7.878;2022-10-16T16:26:45;21.80;99.90
1221;DHT22;600;48.044;7.878;2022-10-16T16:29:14;21.80;99.90
1221;DHT22;600;48.044;7.878;2022-10-16T16:31:42;21.70;99.90
1221;DHT22;600;48.044;7.878;2022-10-16T16:34:09;21.70;99.90
1221;DHT22;600;48.044;7.878;2022-10-16T16:36:36;21.70;99.90
1221;DHT22;600;48.044;7.878;2022-10-16T16:39:05;21.70;99.90
1221;DHT22;600;48.044;7.878;2022-10-16T16:41:33;21.60;99.90
1221;DHT22;600;48.044;7.878;2022-10-16T16:44:04;21.60;99.90
1221;DHT22;600;48.044;7.878;2022-10-16T16:46:31;21.50;99.90